Time;durP1;ratioP1;P1;durP2;ratioP2;P2;SDS_P1;SDS_P2;PMS_P1;PMS_P2;Temp;Humidity;BMP_temperature;BMP_pressure;BME280_temperature;BME280_humidity;BME280_pressure;Samples;Min_cycle;Max_cycle;Signal;HPM_P1;HPM_P2
2022/12/02 00:00:47;;;;;;;30.70;16.73;;;;;;;4.43;100.00;98560.72;4934874;29;20237;-76
2022/12/02 00:03:18;;;;;;;23.83;13.67;;;;;;;4.46;100.00;98550.97;4934869;29;20209;-78
2022/12/02 00:05:48;;;;;;;26.80;15.27;;;;;;;4.44;100.00;98547.56;4934740;29;20233;-78
2022/12/02 00:08:19;;;;;;;24.77;14.60;;;;;;;4.39;100.00;98538.19;4934514;29;20214;-78
2022/12/02 00:10:48;;;;;;;30.90;15.60;;;;;;;4.38;100.00;98541.72;4934675;29;20240;-78
2022/12/02 00:13:22;;;;;;;26.43;15.97;;;;;;;4.46;100.00;98534.44;4934951;29;20210;-78
2022/12/02 00:15:51;;;;;;;25.50;15.07;;;;;;;4.39;100.00;98544.28;4934482;29;20270;-78
2022/12/02 00:18:17;;;;;;;23.60;13.97;;;;;;;4.46;100.00;98539.66;4934325;29;20679;-78
2022/12/02 00:20:44;;;;;;;25.60;15.13;;;;;;;4.39;100.00;98538.19;4934601;29;20232;-78
2022/12/02 00:23:11;;;;;;;27.00;14.70;;;;;;;4.40;100.00;98540.75;4934368;29;20213;-78
2022/12/02 00:25:37;;;;;;;26.57;14.83;;;;;;;4.41;100.00;98539.00;4934466;29;20248;-76
2022/12/02 00:28:05;;;;;;;25.20;15.80;;;;;;;4.33;100.00;98539.28;4934407;29;20236;-78
2022/12/02 00:30:32;;;;;;;28.87;15.83;;;;;;;4.32;100.00;98540.19;4934316;29;20238;-78
2022/12/02 00:32:58;;;;;;;25.73;14.40;;;;;;;4.40;100.00;98538.13;4934281;29;20222;-78
2022/12/02 00:35:25;;;;;;;26.83;15.33;;;;;;;4.41;100.00;98531.97;4934275;29;20209;-78
2022/12/02 00:37:52;;;;;;;22.93;14.03;;;;;;;4.48;100.00;98524.75;4934179;29;20212;-77
2022/12/02 00:40:19;;;;;;;26.93;14.90;;;;;;;4.54;100.00;98535.84;4934412;29;20229;-78
2022/12/02 00:42:46;;;;;;;24.93;14.20;;;;;;;4.56;100.00;98530.53;4934356;29;20209;-78
2022/12/02 00:47:58;;;;;;;26.13;15.50;;;;;;;4.33;100.00;98518.34;4934121;29;20217;-78
2022/12/02 00:50:25;;;;;;;24.40;14.37;;;;;;;4.38;100.00;98516.41;4934032;29;20357;-78
2022/12/02 00:52:51;;;;;;;26.93;15.17;;;;;;;4.35;100.00;98516.50;4934233;29;20217;-78
2022/12/02 00:55:18;;;;;;;25.60;14.33;;;;;;;4.41;100.00;98521.50;4934188;29;20216;-78
2022/12/02 00:57:45;;;;;;;26.33;15.23;;;;;;;4.40;100.00;98511.94;4933749;29;20223;-78
2022/12/02 01:00:14;;;;;;;25.97;15.07;;;;;;;4.48;100.00;98523.00;4933983;29;20233;-78
2022/12/02 01:02:40;;;;;;;25.30;15.00;;;;;;;4.42;100.00;98512.78;4933924;29;20217;-78
2022/12/02 01:05:08;;;;;;;22.40;13.97;;;;;;;4.46;100.00;98514.34;4934246;29;20592;-78
2022/12/02 01:07:35;;;;;;;25.80;14.67;;;;;;;4.54;100.00;98514.03;4933716;29;20232;-78
2022/12/02 01:10:02;;;;;;;24.77;14.80;;;;;;;4.56;100.00;98501.75;4934049;29;20238;-78
2022/12/02 01:12:28;;;;;;;28.03;15.03;;;;;;;4.56;100.00;98504.34;4934013;29;20220;-78
2022/12/02 01:14:54;;;;;;;23.93;14.23;;;;;;;4.52;100.00;98498.38;4933892;29;20301;-78
2022/12/02 01:17:22;;;;;;;24.17;14.47;;;;;;;4.46;100.00;98498.63;4933574;29;20239;-78
2022/12/02 01:19:49;;;;;;;24.30;14.13;;;;;;;4.50;100.00;98496.75;4933951;29;20225;-78
2022/12/02 01:22:15;;;;;;;25.50;14.93;;;;;;;4.49;100.00;98488.06;4934117;29;20240;-78
2022/12/02 01:24:42;;;;;;;24.80;14.80;;;;;;;4.60;100.00;98483.25;4933891;29;20224;-78
2022/12/02 01:27:08;;;;;;;26.97;15.03;;;;;;;4.59;100.00;98485.94;4933465;29;20864;-78
2022/12/02 01:29:35;;;;;;;26.53;13.73;;;;;;;4.49;100.00;98485.44;4933709;29;20217;-78
2022/12/02 01:32:01;;;;;;;24.30;14.33;;;;;;;4.52;100.00;98482.69;4933572;29;20245;-78
2022/12/02 01:34:29;;;;;;;23.80;14.40;;;;;;;4.46;100.00;98482.94;4933971;29;20624;-78
2022/12/02 01:36:56;;;;;;;23.50;14.10;;;;;;;4.45;100.00;98486.47;4933641;29;20217;-78
2022/12/02 01:39:22;;;;;;;22.47;13.70;;;;;;;4.50;100.00;98481.91;4933776;29;20226;-78
2022/12/02 01:41:49;;;;;;;24.60;14.50;;;;;;;4.41;100.00;98479.63;4935404;29;20239;-78
2022/12/02 01:44:16;;;;;;;24.07;13.97;;;;;;;4.41;100.00;98484.88;4937306;29;20213;-78
2022/12/02 01:46:42;;;;;;;25.03;14.40;;;;;;;4.37;100.00;98480.69;4936857;29;20229;-78
2022/12/02 01:49:09;;;;;;;24.37;14.63;;;;;;;4.36;100.00;98486.84;4937169;29;20216;-78
2022/12/02 01:51:37;;;;;;;27.07;15.83;;;;;;;4.33;100.00;98486.94;4937276;29;20230;-78
2022/12/02 01:54:04;;;;;;;23.33;13.97;;;;;;;4.33;100.00;98486.94;4937103;29;20221;-78
2022/12/02 01:56:30;;;;;;;23.97;14.10;;;;;;;4.37;100.00;98485.91;4936924;29;20212;-78
2022/12/02 01:58:57;;;;;;;23.80;14.20;;;;;;;4.35;100.00;98485.09;4935907;29;20213;-78
2022/12/02 02:01:25;;;;;;;26.40;14.73;;;;;;;4.48;100.00;98486.34;4935515;29;20241;-78
2022/12/02 02:03:52;;;;;;;24.73;14.93;;;;;;;4.50;100.00;98488.88;4937183;29;20210;-78
2022/12/02 02:06:18;;;;;;;28.23;13.83;;;;;;;4.49;100.00;98476.72;4936688;29;20243;-78
2022/12/02 02:08:46;;;;;;;26.23;15.00;;;;;;;4.48;100.00;98481.13;4936852;29;20213;-76
2022/12/02 02:11:13;;;;;;;24.87;15.03;;;;;;;4.54;100.00;98477.41;4936841;29;20233;-78
2022/12/02 02:13:39;;;;;;;25.70;14.07;;;;;;;4.44;100.00;98474.28;4937007;29;20216;-76
2022/12/02 02:16:06;;;;;;;24.00;14.23;;;;;;;4.40;100.00;98472.69;4936658;29;20209;-78
2022/12/02 02:18:33;;;;;;;24.60;13.83;;;;;;;4.54;100.00;98465.19;4936663;29;20219;-78
2022/12/02 02:21:00;;;;;;;24.63;14.20;;;;;;;4.45;100.00;98467.31;4936721;29;20249;-78
2022/12/02 02:23:28;;;;;;;23.77;13.77;;;;;;;4.53;100.00;98460.84;4936773;29;20217;-78
2022/12/02 02:25:57;;;;;;;22.93;14.33;;;;;;;4.54;100.00;98465.19;4936349;29;20636;-76
2022/12/02 02:28:26;;;;;;;24.67;13.90;;;;;;;4.40;100.00;98464.03;4936368;29;20217;-78
2022/12/02 02:30:55;;;;;;;22.23;13.30;;;;;;;4.49;100.00;98467.13;4936555;29;20247;-78
2022/12/02 02:33:22;;;;;;;23.27;13.50;;;;;;;4.53;100.00;98458.22;4936424;29;20688;-77
2022/12/02 02:35:49;;;;;;;21.67;13.20;;;;;;;4.48;100.00;98465.41;4936390;29;20557;-78
2022/12/02 02:38:19;;;;;;;23.03;13.47;;;;;;;4.50;100.00;98453.13;4936331;29;20218;-78
2022/12/02 02:40:48;;;;;;;23.77;14.10;;;;;;;4.52;100.00;98456.50;4936161;29;20230;-78
2022/12/02 02:43:16;;;;;;;24.50;14.20;;;;;;;4.40;100.00;98446.53;4936478;29;20210;-78
2022/12/02 02:45:44;;;;;;;22.53;12.13;;;;;;;4.41;100.00;98447.41;4936100;29;20249;-78
2022/12/02 02:48:13;;;;;;;23.57;13.43;;;;;;;4.42;100.00;98455.19;4936156;29;20220;-78
2022/12/02 02:50:42;;;;;;;23.93;13.27;;;;;;;4.44;100.00;98448.13;4936146;29;20229;-78
2022/12/02 02:53:08;;;;;;;23.67;14.03;;;;;;;4.39;100.00;98444.84;4935970;29;20213;-79
2022/12/02 02:55:35;;;;;;;26.70;15.17;;;;;;;4.24;100.00;98445.44;4936187;29;20210;-76
2022/12/02 02:58:16;;;;;;;23.23;13.87;;;;;;;4.21;100.00;98450.78;4935841;29;20253;-78
2022/12/02 03:00:45;;;;;;;22.30;12.50;;;;;;;4.25;100.00;98455.00;4935805;29;20253;-76
2022/12/02 03:03:15;;;;;;;23.30;13.53;;;;;;;4.23;100.00;98454.19;4935951;29;20214;-78
2022/12/02 03:05:41;;;;;;;25.33;13.90;;;;;;;4.35;100.00;98450.25;4935518;29;20242;-77
2022/12/02 03:08:09;;;;;;;26.17;14.27;;;;;;;4.33;100.00;98447.69;4935563;29;20216;-78
2022/12/02 03:10:35;;;;;;;21.97;12.80;;;;;;;4.31;100.00;98444.28;4935904;29;20257;-78
2022/12/02 03:13:02;;;;;;;22.83;13.63;;;;;;;4.35;100.00;98447.66;4935824;29;20303;-78
2022/12/02 03:15:30;;;;;;;20.43;12.33;;;;;;;4.29;100.00;98443.47;4935619;29;20220;-78
2022/12/02 03:17:57;;;;;;;23.70;13.80;;;;;;;4.23;100.00;98438.50;4935464;29;20221;-78
2022/12/02 03:20:25;;;;;;;22.63;13.93;;;;;;;4.24;100.00;98445.44;4935762;29;20271;-78
2022/12/02 03:22:52;;;;;;;20.43;13.30;;;;;;;4.25;100.00;98436.69;4935759;29;20227;-78
2022/12/02 03:25:19;;;;;;;22.77;13.77;;;;;;;4.30;100.00;98441.72;4935854;29;20217;-76
2022/12/02 03:27:46;;;;;;;23.13;13.03;;;;;;;4.19;100.00;98442.16;4935169;29;20261;-77
2022/12/02 03:30:13;;;;;;;24.87;14.43;;;;;;;4.21;100.00;98445.56;4935415;29;20228;-78
2022/12/02 03:32:41;;;;;;;21.30;12.87;;;;;;;4.29;100.00;98442.66;4935338;29;20256;-76
2022/12/02 03:35:08;;;;;;;22.80;12.80;;;;;;;4.23;100.00;98443.72;4935532;29;20221;-77
2022/12/02 03:37:35;;;;;;;26.90;13.83;;;;;;;4.25;100.00;98441.06;4935163;29;20212;-78
2022/12/02 03:40:02;;;;;;;24.73;13.30;;;;;;;4.24;100.00;98440.22;4935177;29;20241;-78
2022/12/02 03:42:29;;;;;;;22.13;12.80;;;;;;;4.15;100.00;98439.72;4935230;29;20220;-78
2022/12/02 03:44:55;;;;;;;25.43;13.27;;;;;;;4.22;100.00;98447.25;4935112;29;20679;-78
2022/12/02 03:47:22;;;;;;;25.03;13.67;;;;;;;4.26;100.00;98437.53;4934645;29;20232;-78
2022/12/02 03:49:50;;;;;;;24.33;14.17;;;;;;;4.25;100.00;98435.81;4935177;29;20269;-78
2022/12/02 03:52:16;;;;;;;23.37;13.80;;;;;;;4.28;100.00;98433.94;4935101;29;20225;-78
2022/12/02 03:54:43;;;;;;;23.60;13.63;;;;;;;4.26;100.00;98438.38;4934949;29;20698;-76
2022/12/02 03:57:10;;;;;;;25.00;13.70;;;;;;;4.28;100.00;98436.56;4934749;29;20648;-78
2022/12/02 03:59:36;;;;;;;26.60;14.30;;;;;;;4.20;100.00;98433.41;4934953;29;20213;-78
2022/12/02 04:02:03;;;;;;;22.20;12.70;;;;;;;4.28;100.00;98425.25;4934538;29;20247;-79
2022/12/02 04:04:29;;;;;;;24.77;13.50;;;;;;;4.27;100.00;98428.78;4934559;29;20238;-76
2022/12/02 04:06:57;;;;;;;24.27;13.77;;;;;;;4.31;100.00;98418.13;4934448;29;20229;-76
2022/12/02 04:09:24;;;;;;;28.67;14.57;;;;;;;4.27;100.00;98418.31;4934857;29;20230;-78
2022/12/02 04:11:50;;;;;;;25.80;13.43;;;;;;;4.28;100.00;98415.63;4934581;29;20227;-78
2022/12/02 04:14:16;;;;;;;23.20;12.77;;;;;;;4.31;100.00;98405.06;4934600;29;20224;-78
2022/12/02 04:16:43;;;;;;;24.50;13.80;;;;;;;4.27;100.00;98410.47;4934236;29;20689;-78
2022/12/02 04:19:09;;;;;;;23.20;13.80;;;;;;;4.21;100.00;98408.94;4934923;29;20224;-78
2022/12/02 04:21:36;;;;;;;24.00;13.27;;;;;;;4.20;100.00;98412.47;4934614;29;20240;-78
2022/12/02 04:24:04;;;;;;;26.80;13.90;;;;;;;4.17;100.00;98407.34;4934476;29;20704;-78
2022/12/02 04:26:31;;;;;;;22.70;13.83;;;;;;;4.22;100.00;98408.03;4934222;29;20247;-78
2022/12/02 04:28:57;;;;;;;22.30;13.10;;;;;;;4.19;100.00;98397.69;4934327;29;20208;-78
2022/12/02 04:31:24;;;;;;;25.83;15.07;;;;;;;4.16;100.00;98403.03;4934527;29;20235;-78
2022/12/02 04:33:50;;;;;;;23.60;13.60;;;;;;;4.28;100.00;98394.69;4934491;29;20213;-78
2022/12/02 04:36:17;;;;;;;22.13;12.90;;;;;;;4.20;100.00;98391.53;4934207;29;20209;-78
2022/12/02 04:38:43;;;;;;;24.43;13.70;;;;;;;4.20;100.00;98390.69;4934378;29;20591;-78
2022/12/02 04:41:11;;;;;;;24.30;13.57;;;;;;;4.21;100.00;98400.25;4934267;29;20228;-78
2022/12/02 04:43:37;;;;;;;25.40;13.73;;;;;;;4.19;100.00;98395.06;4934153;29;20213;-78
2022/12/02 04:46:04;;;;;;;24.67;13.47;;;;;;;4.25;100.00;98399.19;4934318;29;20208;-78
2022/12/02 04:48:31;;;;;;;28.47;15.00;;;;;;;4.17;100.00;98401.28;4934423;29;20209;-78
2022/12/02 04:50:57;;;;;;;23.67;13.50;;;;;;;4.17;100.00;98402.13;4934330;29;20240;-77
2022/12/02 04:53:24;;;;;;;27.00;14.50;;;;;;;4.27;100.00;98398.22;4934165;29;20217;-77
2022/12/02 04:55:50;;;;;;;25.60;13.93;;;;;;;4.34;100.00;98394.44;4933985;29;20212;-77
2022/12/02 04:58:18;;;;;;;24.73;14.30;;;;;;;4.28;100.00;98389.47;4933868;29;20219;-77
2022/12/02 05:00:44;;;;;;;27.07;15.40;;;;;;;4.16;100.00;98392.56;4952282;23;20238;-82
2022/12/02 05:03:11;;;;;;;27.47;14.37;;;;;;;4.21;100.00;98388.00;4953515;29;20231;-82
2022/12/02 05:05:37;;;;;;;24.13;13.83;;;;;;;4.29;100.00;98385.94;4953473;29;20208;-84
2022/12/02 05:08:04;;;;;;;24.23;13.80;;;;;;;4.24;100.00;98387.91;4953164;29;20232;-82
2022/12/02 05:10:31;;;;;;;25.07;13.93;;;;;;;4.24;100.00;98387.03;4949393;29;20233;-82
2022/12/02 05:12:57;;;;;;;23.57;13.07;;;;;;;4.26;100.00;98385.19;4934146;29;20225;-83
2022/12/02 05:15:25;;;;;;;21.93;13.37;;;;;;;4.32;100.00;98393.66;4934030;29;20223;-83
2022/12/02 05:17:52;;;;;;;26.27;13.53;;;;;;;4.37;100.00;98394.34;4937559;29;20207;-83
2022/12/02 05:20:18;;;;;;;24.13;13.73;;;;;;;4.42;100.00;98387.16;4937807;29;20219;-83
2022/12/02 05:22:45;;;;;;;27.37;13.90;;;;;;;4.29;100.00;98388.53;4937710;29;20208;-83
2022/12/02 05:25:11;;;;;;;24.47;14.10;;;;;;;4.33;100.00;98371.00;4937686;29;20240;-83
2022/12/02 05:27:38;;;;;;;24.73;13.80;;;;;;;4.28;100.00;98386.84;4937276;29;20707;-83
2022/12/02 05:30:06;;;;;;;30.73;15.20;;;;;;;4.15;100.00;98383.03;4937671;29;20275;-83
2022/12/02 05:32:34;;;;;;;24.77;13.77;;;;;;;4.21;100.00;98393.25;4937856;29;20368;-83
2022/12/02 05:35:00;;;;;;;27.00;14.17;;;;;;;4.20;100.00;98395.91;4937627;29;20337;-83
2022/12/02 05:37:27;;;;;;;27.70;15.00;;;;;;;4.13;100.00;98394.47;4937437;29;20649;-83
2022/12/02 05:39:53;;;;;;;30.50;15.93;;;;;;;3.96;100.00;98395.13;4937447;29;20227;-83
2022/12/02 05:42:20;;;;;;;27.80;15.23;;;;;;;4.04;100.00;98382.59;4937519;29;20231;-83
2022/12/02 05:44:46;;;;;;;28.77;15.23;;;;;;;4.00;100.00;98393.25;4937359;29;20679;-83
2022/12/02 05:47:15;;;;;;;29.67;16.57;;;;;;;4.00;100.00;98394.09;4937398;29;20579;-83
2022/12/02 05:49:44;;;;;;;30.73;16.77;;;;;;;3.99;100.00;98397.63;4937503;29;20545;-83
2022/12/02 05:52:21;;;;;;;32.47;16.03;;;;;;;3.95;100.00;98390.81;4937216;29;20610;-83
2022/12/02 05:54:48;;;;;;;31.60;16.80;;;;;;;3.99;100.00;98386.31;4937486;29;20280;-82
2022/12/02 05:57:15;;;;;;;38.47;16.70;;;;;;;3.92;100.00;98384.84;4937066;29;20667;-83
2022/12/02 05:59:42;;;;;;;30.80;16.23;;;;;;;3.86;100.00;98391.16;4937093;29;20681;-83
2022/12/02 06:02:23;;;;;;;31.87;16.03;;;;;;;3.85;100.00;98389.44;4936922;29;20251;-84
2022/12/02 06:04:51;;;;;;;35.57;16.90;;;;;;;3.84;100.00;98389.53;4936994;29;20216;-83
2022/12/02 06:07:18;;;;;;;34.80;17.77;;;;;;;3.80;100.00;98391.38;4936895;29;20236;-84
2022/12/02 06:09:45;;;;;;;32.63;17.50;;;;;;;3.81;100.00;98382.66;4936718;29;20303;-84
2022/12/02 06:12:15;;;;;;;33.43;17.03;;;;;;;3.93;100.00;98392.63;4936658;29;20235;-84
2022/12/02 06:14:45;;;;;;;30.70;16.60;;;;;;;3.87;100.00;98386.78;4936735;29;20702;-84
2022/12/02 06:17:15;;;;;;;32.33;17.47;;;;;;;3.89;100.00;98383.19;4936279;29;20217;-84
2022/12/02 06:19:46;;;;;;;34.77;17.03;;;;;;;3.82;100.00;98384.34;4936950;29;20295;-84
2022/12/02 06:22:19;;;;;;;40.67;18.77;;;;;;;3.91;100.00;98389.22;4936708;29;20233;-84
2022/12/02 06:24:46;;;;;;;33.80;16.60;;;;;;;3.87;100.00;98379.81;4936456;29;20212;-84
2022/12/02 06:27:14;;;;;;;35.70;17.73;;;;;;;3.83;100.00;98372.13;4935882;29;20243;-83
2022/12/02 06:29:47;;;;;;;35.67;17.13;;;;;;;3.83;100.00;98385.19;4936411;29;20205;-83
2022/12/02 06:32:18;;;;;;;38.60;18.70;;;;;;;3.87;100.00;98382.41;4936561;29;20251;-83
2022/12/02 06:34:45;;;;;;;36.30;18.10;;;;;;;3.87;100.00;98381.56;4936387;29;20209;-83
2022/12/02 06:37:18;;;;;;;37.87;17.87;;;;;;;3.82;100.00;98383.50;4936694;29;20209;-84
2022/12/02 06:39:46;;;;;;;33.30;17.17;;;;;;;3.78;100.00;98380.16;4936358;29;20215;-84
2022/12/02 06:42:21;;;;;;;36.87;17.53;;;;;;;3.90;100.00;98377.06;4936346;29;20308;-87
2022/12/02 06:45:07;;;;;;;39.13;18.20;;;;;;;3.88;100.00;98381.50;4936789;29;20216;-86
2022/12/02 06:48:06;;;;;;;36.70;17.90;;;;;;;3.82;100.00;98379.13;4935753;29;20236;-82
2022/12/02 06:50:35;;;;;;;31.97;17.70;;;;;;;3.88;100.00;98378.88;4934443;29;20276;-82
2022/12/02 06:53:22;;;;;;;34.03;17.13;;;;;;;3.76;100.00;98374.13;4936272;29;20228;-85
2022/12/02 06:55:49;;;;;;;35.73;17.60;;;;;;;3.75;100.00;98377.66;4936101;29;20734;-85
2022/12/02 06:58:35;;;;;;;38.10;18.90;;;;;;;3.68;100.00;98370.94;4935989;29;20697;-86
2022/12/02 07:01:14;;;;;;;35.77;18.73;;;;;;;3.83;100.00;98375.59;4935141;29;20236;-84
2022/12/02 07:03:47;;;;;;;33.90;17.37;;;;;;;3.79;100.00;98373.16;4935822;29;20672;-84
2022/12/02 07:06:16;;;;;;;34.33;18.97;;;;;;;3.83;100.00;98375.59;4935839;29;20220;-85
2022/12/02 07:08:44;;;;;;;41.08;21.42;;;;;;;3.81;100.00;98377.44;4935126;29;20465;-84
2022/12/02 07:11:48;;;;;;;41.47;18.57;;;;;;;3.75;100.00;98382.88;4935703;29;20232;-86
2022/12/02 07:14:20;;;;;;;36.23;18.47;;;;;;;3.77;100.00;98377.56;4935787;29;20212;-92
2022/12/02 07:16:48;;;;;;;37.30;18.80;;;;;;;3.72;100.00;98380.38;4949324;29;20259;-94
2022/12/02 07:19:18;;;;;;;40.80;20.33;;;;;;;3.65;100.00;98378.91;4943690;29;20279;-96
2022/12/02 07:21:45;;;;;;;39.17;18.17;;;;;;;3.70;100.00;98374.38;4948393;29;20254;-94
2022/12/02 07:24:15;;;;;;;35.20;17.77;;;;;;;3.72;100.00;98377.75;4949571;29;20208;-96
2022/12/02 07:26:44;;;;;;;37.50;17.43;;;;;;;3.76;100.00;98383.72;4949775;29;20204;-91
2022/12/02 07:29:14;;;;;;;30.97;17.30;;;;;;;3.78;100.00;98377.53;4938852;29;20221;-92
2022/12/02 07:31:43;;;;;;;33.33;17.80;;;;;;;3.69;100.00;98377.03;4942709;29;20238;-94
2022/12/02 07:34:10;;;;;;;41.83;19.43;;;;;;;3.69;100.00;98383.13;4943497;29;20239;-95
2022/12/02 07:36:36;;;;;;;38.63;18.07;;;;;;;3.75;100.00;98382.03;4942667;29;20217;-91
2022/12/02 07:39:03;;;;;;;36.87;19.33;;;;;;;3.77;100.00;98381.06;4940912;29;20220;-94
2022/12/02 07:41:31;;;;;;;37.45;20.20;;;;;;;3.72;100.00;98380.38;4938124;29;20441;-90
2022/12/02 07:43:57;;;;;;;40.87;18.70;;;;;;;3.76;100.00;98374.13;4934089;29;20216;-90
2022/12/02 07:46:24;;;;;;;35.97;18.23;;;;;;;3.76;100.00;98374.13;4934196;29;20216;-90
2022/12/02 07:48:50;;;;;;;39.45;22.63;;;;;;;3.92;100.00;98374.38;4934055;29;20453;-89
2022/12/02 07:51:17;;;;;;;36.58;19.98;;;;;;;3.91;100.00;98372.69;4934382;29;20734;-87
2022/12/02 07:53:43;;;;;;;37.37;19.67;;;;;;;3.83;100.00;98369.50;4934435;29;20223;-87
2022/12/02 07:56:10;;;;;;;35.20;17.30;;;;;;;3.88;100.00;98371.03;4934864;29;20674;-89
2022/12/02 07:58:38;;;;;;;35.47;17.50;;;;;;;3.98;100.00;98374.16;4935232;29;20209;-83
2022/12/02 08:01:04;;;;;;;34.90;17.67;;;;;;;3.92;100.00;98380.44;4934925;29;20251;-81
2022/12/02 08:03:31;;;;;;;38.27;18.83;;;;;;;3.98;100.00;98369.75;4934725;29;20244;-86
2022/12/02 08:05:57;;;;;;;36.80;17.17;;;;;;;3.93;100.00;98369.09;4934909;29;20287;-90
2022/12/02 08:08:24;;;;;;;32.67;16.77;;;;;;;3.92;100.00;98370.00;4934977;29;20249;-91
2022/12/02 08:10:50;;;;;;;36.93;17.23;;;;;;;3.91;100.00;98373.53;4935157;29;20228;-86
2022/12/02 08:13:17;;;;;;;32.40;18.53;;;;;;;3.96;100.00;98371.59;4935041;29;20212;-91
2022/12/02 08:15:45;;;;;;;33.63;17.20;;;;;;;3.93;100.00;98371.72;4934668;29;20212;-90
2022/12/02 08:18:11;;;;;;;35.40;17.83;;;;;;;3.86;100.00;98372.00;4935205;29;20218;-89
2022/12/02 08:20:38;;;;;;;36.37;18.93;;;;;;;3.77;100.00;98375.84;4934851;29;20241;-89
2022/12/02 08:23:06;;;;;;;34.33;17.13;;;;;;;3.86;100.00;98379.84;4934613;29;20213;-89
2022/12/02 08:25:32;;;;;;;29.70;16.23;;;;;;;3.86;100.00;98374.63;4934489;29;20215;-89
2022/12/02 08:27:59;;;;;;;32.20;16.73;;;;;;;3.89;100.00;98370.13;4934894;29;20234;-86
2022/12/02 08:30:25;;;;;;;34.17;17.60;;;;;;;3.84;100.00;98369.44;4934848;29;20251;-88
2022/12/02 08:32:53;;;;;;;32.93;16.80;;;;;;;3.80;100.00;98370.47;4935724;29;20223;-87
2022/12/02 08:35:20;;;;;;;31.47;16.20;;;;;;;3.71;100.00;98365.59;4934581;29;20219;-88
2022/12/02 08:37:47;;;;;;;34.73;17.20;;;;;;;3.73;100.00;98368.19;4933730;29;20209;-88
2022/12/02 08:40:14;;;;;;;28.73;16.53;;;;;;;3.78;100.00;98361.84;4934136;29;20679;-88
2022/12/02 08:42:41;;;;;;;33.43;16.70;;;;;;;3.73;100.00;98362.94;4934336;29;20216;-88
2022/12/02 08:45:08;;;;;;;34.63;16.93;;;;;;;3.74;100.00;98364.66;4934256;29;20243;-88
2022/12/02 08:47:35;;;;;;;29.10;15.17;;;;;;;3.75;100.00;98356.75;4933919;29;20235;-88
2022/12/02 08:50:04;;;;;;;31.00;16.60;;;;;;;3.73;100.00;98360.34;4934213;29;20209;-88
2022/12/02 08:52:31;;;;;;;29.90;15.77;;;;;;;3.78;100.00;98361.84;4934223;29;20209;-87
2022/12/02 08:54:57;;;;;;;31.43;16.20;;;;;;;3.75;100.00;98367.22;4934277;29;20271;-88
2022/12/02 08:57:24;;;;;;;34.60;17.83;;;;;;;3.82;100.00;98363.44;4933938;29;20281;-80
2022/12/02 08:59:50;;;;;;;29.00;17.10;;;;;;;3.86;100.00;98354.53;4933815;29;20209;-80
2022/12/02 09:02:17;;;;;;;32.60;16.83;;;;;;;3.77;100.00;98365.38;4933897;29;20251;-81
2022/12/02 09:04:44;;;;;;;27.63;15.33;;;;;;;3.76;100.00;98358.44;4934004;29;20551;-80
2022/12/02 09:07:11;;;;;;;28.63;15.20;;;;;;;3.82;100.00;98358.22;4933746;29;20208;-81
2022/12/02 09:09:38;;;;;;;30.93;16.27;;;;;;;3.81;100.00;98353.91;4933787;29;20706;-85
2022/12/02 09:12:05;;;;;;;32.00;15.80;;;;;;;3.78;100.00;98358.41;4933916;29;20735;-85
2022/12/02 09:14:31;;;;;;;37.90;16.47;;;;;;;3.84;100.00;98358.16;4933847;29;20216;-86
2022/12/02 09:16:58;;;;;;;29.77;15.93;;;;;;;3.83;100.00;98352.06;4933500;29;20219;-86
2022/12/02 09:19:25;;;;;;;28.03;15.37;;;;;;;3.86;100.00;98357.16;4933986;29;20215;-86
2022/12/02 09:21:51;;;;;;;27.67;13.63;;;;;;;3.91;100.00;98351.78;4933928;29;20232;-86
2022/12/02 09:24:19;;;;;;;24.23;13.47;;;;;;;3.88;100.00;98347.50;4933891;29;20217;-86
2022/12/02 09:26:45;;;;;;;27.80;14.43;;;;;;;3.96;100.00;98360.25;4933538;29;20208;-88
2022/12/02 09:29:12;;;;;;;24.50;13.17;;;;;;;3.85;100.00;98354.63;4934626;29;20249;-88
2022/12/02 09:31:39;;;;;;;27.80;14.17;;;;;;;3.88;100.00;98355.34;4933934;29;20224;-88
2022/12/02 09:34:05;;;;;;;23.50;13.23;;;;;;;3.86;100.00;98354.53;4933880;29;20209;-87
2022/12/02 09:36:32;;;;;;;26.23;13.57;;;;;;;3.82;100.00;98352.13;4933493;29;20222;-83
2022/12/02 09:38:58;;;;;;;26.30;14.10;;;;;;;3.87;100.00;98347.56;4933907;29;20221;-89
2022/12/02 09:41:27;;;;;;;22.47;12.13;;;;;;;3.86;100.00;98349.31;4933567;29;20236;-85
2022/12/02 09:43:54;;;;;;;25.73;13.60;;;;;;;3.86;100.00;98349.31;4933644;29;20208;-87
2022/12/02 09:46:21;;;;;;;19.57;12.30;;;;;;;3.90;100.00;98347.44;4933329;29;20319;-87
2022/12/02 09:48:48;;;;;;;20.70;11.83;;;;;;;3.90;100.00;98345.69;4933517;29;20316;-84
2022/12/02 09:51:14;;;;;;;26.80;14.17;;;;;;;3.99;100.00;98344.47;4933408;29;20232;-80
2022/12/02 09:53:42;;;;;;;20.17;11.47;;;;;;;3.98;100.00;98348.84;4933415;29;20257;-80
2022/12/02 09:56:15;;;;;;;21.27;12.33;;;;;;;3.98;100.00;98343.59;4933250;29;20220;-80
2022/12/02 09:58:45;;;;;;;20.57;12.17;;;;;;;3.99;100.00;98345.34;4933615;29;20220;-80
2022/12/02 10:01:13;;;;;;;18.83;10.47;;;;;;;3.98;100.00;98341.00;4933269;29;20240;-81
2022/12/02 10:03:40;;;;;;;19.23;10.80;;;;;;;3.98;100.00;98337.53;4936381;29;20216;-81
2022/12/02 10:06:12;;;;;;;20.03;11.03;;;;;;;3.98;100.00;98343.59;4936329;29;20214;-80
2022/12/02 10:08:39;;;;;;;20.80;10.83;;;;;;;3.92;100.00;98338.63;4936430;29;20241;-81
2022/12/02 10:11:06;;;;;;;19.33;10.17;;;;;;;3.93;100.00;98335.13;4936505;29;20887;-81
2022/12/02 10:13:41;;;;;;;17.33;10.43;;;;;;;3.96;100.00;98337.59;4936796;29;20308;-80
2022/12/02 10:16:12;;;;;;;17.40;9.97;;;;;;;3.91;100.00;98330.84;4936339;29;20225;-85
2022/12/02 10:18:41;;;;;;;18.07;9.73;;;;;;;3.92;100.00;98325.53;4936786;29;20253;-83
2022/12/02 10:21:07;;;;;;;16.43;10.03;;;;;;;4.07;100.00;98322.34;4936488;29;20233;-93
2022/12/02 10:23:52;;;;;;;17.20;9.63;;;;;;;4.02;100.00;98318.19;4937003;29;20229;-85
2022/12/02 10:26:19;;;;;;;16.43;9.73;;;;;;;4.02;100.00;98326.03;4938204;29;20193;-91
2022/12/02 10:28:59;;;;;;;19.87;10.03;;;;;;;4.02;100.00;98321.66;4936634;29;20721;-87
2022/12/02 10:31:27;;;;;;;15.70;9.43;;;;;;;4.03;100.00;98310.28;4937188;29;20243;-87
2022/12/02 10:33:57;;;;;;;15.10;9.20;;;;;;;4.00;100.00;98320.03;4936743;29;20216;-91
2022/12/02 10:36:31;;;;;;;16.43;9.80;;;;;;;3.98;100.00;98311.41;4936043;29;20224;-89
2022/12/02 10:39:17;;;;;;;13.00;7.70;;;;;;;3.94;100.00;98313.28;4936605;29;20279;-90
2022/12/02 10:41:44;;;;;;;13.20;8.80;;;;;;;3.98;100.00;98301.75;4936619;29;20232;-90
2022/12/02 10:44:14;;;;;;;14.70;8.53;;;;;;;4.01;100.00;98309.50;4936779;29;20295;-88
2022/12/02 10:46:44;;;;;;;14.03;8.47;;;;;;;3.94;100.00;98313.28;4935670;29;20218;-87
2022/12/02 10:49:27;;;;;;;14.60;8.77;;;;;;;3.88;100.00;98305.69;4936135;29;20722;-86
2022/12/02 10:51:55;;;;;;;17.43;9.83;;;;;;;3.89;100.00;98304.75;4936226;29;20285;-89
2022/12/02 10:54:25;;;;;;;16.20;9.10;;;;;;;3.99;100.00;98298.28;4936298;29;20212;-87
2022/12/02 10:56:53;;;;;;;15.53;8.80;;;;;;;3.92;100.00;98302.00;4935671;29;20867;-87
2022/12/02 10:59:22;;;;;;;21.27;10.57;;;;;;;3.85;100.00;98295.34;4935915;29;20304;-87
2022/12/02 11:01:52;;;;;;;16.50;9.37;;;;;;;3.92;100.00;98290.72;4960219;23;20591;-85
2022/12/02 11:04:19;;;;;;;17.53;9.60;;;;;;;3.88;100.00;98294.38;4955787;28;20213;-91
2022/12/02 11:06:49;;;;;;;16.43;9.00;;;;;;;3.93;100.00;98288.06;4955334;28;20659;-86
2022/12/02 11:09:17;;;;;;;15.23;8.83;;;;;;;3.90;100.00;98282.94;4955621;28;20236;-86
2022/12/02 11:11:44;;;;;;;15.10;8.63;;;;;;;3.91;100.00;98292.47;4945293;28;20228;-79
2022/12/02 11:14:13;;;;;;;13.57;8.30;;;;;;;3.85;100.00;98282.25;4935176;29;20226;-89
2022/12/02 11:17:05;;;;;;;15.37;8.43;;;;;;;3.80;100.00;98281.59;4936072;29;20236;-89
2022/12/02 11:19:46;;;;;;;13.83;7.97;;;;;;;3.79;100.00;98272.06;4936218;29;20198;-91
2022/12/02 11:23:05;;;;;;;11.37;7.13;;;;;;;3.83;100.00;98273.63;4936544;29;20237;-91
2022/12/02 11:26:05;;;;;;;12.90;7.17;;;;;;;3.77;100.00;98265.19;4936793;29;20306;-91